Time;durP1;ratioP1;P1;durP2;ratioP2;P2;SDS_P1;SDS_P2;PMS_P1;PMS_P2;Temp;Humidity;BMP_temperature;BMP_pressure;BME280_temperature;BME280_humidity;BME280_pressure;Samples;Min_cycle;Max_cycle;Signal;HPM_P1;HPM_P2
2022/09/04 00:00:34;;;;;;;0.00;0.00;;;16.90;85.10;;;;;;4895269;29;20048;-80
2022/09/04 00:03:14;;;;;;;0.00;0.00;;;16.90;85.40;;;;;;4902654;29;20049;-80
2022/09/04 00:05:46;;;;;;;0.00;0.00;;;16.80;85.20;;;;;;4911079;29;20052;-80
2022/09/04 00:08:40;;;;;;;0.00;0.00;;;16.80;84.40;;;;;;4899453;29;20037;-80
2022/09/04 00:11:19;;;;;;;0.00;0.00;;;16.80;84.80;;;;;;4896339;29;20060;-80
2022/09/04 00:13:53;;;;;;;0.00;0.00;;;16.80;85.00;;;;;;4896518;29;20045;-80
2022/09/04 00:16:23;;;;;;;0.00;0.00;;;16.70;84.70;;;;;;4897284;29;20056;-80
2022/09/04 00:18:56;;;;;;;0.00;0.00;;;16.70;84.40;;;;;;4893986;29;20083;-80
2022/09/04 00:21:29;;;;;;;0.00;0.00;;;16.70;83.90;;;;;;4894058;29;20100;-80
2022/09/04 00:23:59;;;;;;;0.00;0.00;;;16.70;85.00;;;;;;4899654;29;20032;-80
2022/09/04 00:26:38;;;;;;;0.00;0.00;;;16.70;84.60;;;;;;4899354;29;20044;-80
2022/09/04 00:29:13;;;;;;;0.00;0.00;;;16.70;84.70;;;;;;4909677;29;20536;-80
2022/09/04 00:31:47;;;;;;;0.00;0.00;;;16.70;84.20;;;;;;4896845;29;20461;-79
2022/09/04 00:34:30;;;;;;;0.00;0.00;;;16.70;84.70;;;;;;4896808;29;20052;-80
2022/09/04 00:37:03;;;;;;;0.00;0.00;;;16.70;85.20;;;;;;4899105;29;20048;-80
2022/09/04 00:39:37;;;;;;;0.00;0.00;;;16.70;84.70;;;;;;4900544;29;20040;-80
2022/09/04 00:42:21;;;;;;;0.00;0.00;;;16.60;84.90;;;;;;4897799;29;20032;-80
2022/09/04 00:45:05;;;;;;;0.00;0.00;;;16.60;85.50;;;;;;4901737;29;20052;-81
2022/09/04 00:48:02;;;;;;;0.00;0.00;;;16.60;86.70;;;;;;4901278;29;20417;-79
2022/09/04 00:51:10;;;;;;;0.00;0.00;;;16.50;88.30;;;;;;4908422;29;20040;-80
2022/09/04 00:54:11;;;;;;;0.00;0.00;;;16.50;88.90;;;;;;4895608;29;20048;-80
2022/09/04 00:57:12;;;;;;;0.00;0.00;;;16.40;88.80;;;;;;4899729;29;20622;-81
2022/09/04 00:59:58;;;;;;;0.00;0.00;;;16.30;89.40;;;;;;4893522;29;20059;-80
2022/09/04 01:02:35;;;;;;;0.00;0.00;;;16.20;90.10;;;;;;4903900;29;20045;-80
2022/09/04 01:05:09;;;;;;;0.00;0.00;;;16.20;90.40;;;;;;4895567;29;20059;-80
2022/09/04 01:07:55;;;;;;;0.00;0.00;;;16.30;90.50;;;;;;4898925;29;20056;-80
2022/09/04 01:10:32;;;;;;;0.00;0.00;;;16.00;90.60;;;;;;4901122;29;20056;-80
2022/09/04 01:13:07;;;;;;;0.00;0.00;;;15.80;91.00;;;;;;4911445;29;20032;-80
2022/09/04 01:15:42;;;;;;;0.00;0.00;;;15.70;90.60;;;;;;4909382;29;20386;-80
2022/09/04 01:18:15;;;;;;;0.00;0.00;;;15.60;90.60;;;;;;4899944;29;20049;-80
2022/09/04 01:21:05;;;;;;;0.00;0.00;;;15.70;90.40;;;;;;4898698;29;20063;-80
2022/09/04 01:24:08;;;;;;;0.00;0.00;;;15.70;90.30;;;;;;4909232;29;20066;-82
2022/09/04 01:26:45;;;;;;;0.00;0.00;;;15.60;90.10;;;;;;4913828;29;20056;-81
2022/09/04 01:29:21;;;;;;;0.00;0.00;;;15.60;90.40;;;;;;4896991;29;20048;-81
2022/09/04 01:31:54;;;;;;;0.00;0.00;;;15.50;90.60;;;;;;4900470;29;20040;-80
2022/09/04 01:34:33;;;;;;;0.00;0.00;;;15.50;90.70;;;;;;4905670;29;20454;-81
2022/09/04 01:37:05;;;;;;;0.00;0.00;;;15.40;90.80;;;;;;4907894;29;20044;-80
2022/09/04 01:39:35;;;;;;;0.00;0.00;;;15.30;91.10;;;;;;4900884;29;20406;-81
2022/09/04 01:42:11;;;;;;;0.00;0.00;;;15.30;91.30;;;;;;4897412;29;20051;-80
2022/09/04 01:44:38;;;;;;;0.00;0.00;;;15.30;91.20;;;;;;4899719;29;20049;-81
2022/09/04 01:47:13;;;;;;;0.00;0.00;;;15.20;91.30;;;;;;4896792;29;20052;-80
2022/09/04 01:49:46;;;;;;;0.00;0.00;;;15.20;91.50;;;;;;4898182;29;20061;-80
2022/09/04 01:52:35;;;;;;;0.00;0.00;;;15.20;91.30;;;;;;4900583;29;20517;-80
2022/09/04 01:55:12;;;;;;;0.00;0.00;;;15.10;91.40;;;;;;4903047;29;20082;-80
2022/09/04 01:58:04;;;;;;;0.00;0.00;;;15.10;91.50;;;;;;4899639;29;20053;-81
2022/09/04 02:00:37;;;;;;;0.00;0.00;;;15.10;91.60;;;;;;4896819;29;20055;-80
2022/09/04 02:03:16;;;;;;;0.00;0.00;;;15.00;91.90;;;;;;4914634;29;20394;-81
2022/09/04 02:05:55;;;;;;;0.00;0.00;;;15.00;91.70;;;;;;4899298;29;20052;-80
2022/09/04 02:08:33;;;;;;;0.00;0.00;;;15.00;91.70;;;;;;4904293;29;20049;-80
2022/09/04 02:11:07;;;;;;;0.00;0.00;;;14.90;92.00;;;;;;4897643;29;20052;-81
2022/09/04 02:13:46;;;;;;;0.00;0.00;;;14.80;92.20;;;;;;4902008;29;20041;-79
2022/09/04 02:16:19;;;;;;;0.00;0.00;;;14.70;92.40;;;;;;4898915;29;20049;-81
2022/09/04 02:18:54;;;;;;;0.00;0.00;;;14.60;92.60;;;;;;4901756;29;20056;-81
2022/09/04 02:21:27;;;;;;;0.00;0.00;;;14.60;92.80;;;;;;4911053;29;20049;-81
2022/09/04 02:24:03;;;;;;;0.00;0.00;;;14.60;92.60;;;;;;4902020;29;20446;-81
2022/09/04 02:26:36;;;;;;;0.00;0.00;;;14.60;92.70;;;;;;4893670;29;20049;-81
2022/09/04 02:29:11;;;;;;;0.00;0.00;;;14.50;92.70;;;;;;4908210;29;20048;-80
2022/09/04 02:31:48;;;;;;;0.00;0.00;;;14.50;92.70;;;;;;4904104;29;20045;-80
2022/09/04 02:34:25;;;;;;;0.00;0.00;;;14.50;92.80;;;;;;4905339;29;20044;-79
2022/09/04 02:36:59;;;;;;;0.00;0.00;;;14.50;92.70;;;;;;4906791;29;20052;-81
2022/09/04 02:39:40;;;;;;;0.00;0.00;;;14.50;92.80;;;;;;4903570;29;20505;-81
2022/09/04 02:42:18;;;;;;;0.00;0.00;;;14.50;92.70;;;;;;4915953;29;20055;-82
2022/09/04 02:44:57;;;;;;;0.00;0.00;;;14.40;92.90;;;;;;4907396;29;20063;-81
2022/09/04 02:47:32;;;;;;;0.00;0.00;;;14.30;93.10;;;;;;4905107;29;20048;-81
2022/09/04 02:50:10;;;;;;;0.00;0.00;;;14.30;93.20;;;;;;4907038;29;20304;-80
2022/09/04 02:52:58;;;;;;;0.00;0.00;;;14.30;93.20;;;;;;4922131;29;21276;-80
2022/09/04 02:55:44;;;;;;;0.00;0.00;;;14.20;93.50;;;;;;4901979;29;20036;-81
2022/09/04 02:58:18;;;;;;;0.00;0.00;;;14.20;93.50;;;;;;4919002;29;20119;-80
2022/09/04 03:00:53;;;;;;;0.00;0.00;;;14.10;93.50;;;;;;4903212;29;20125;-80
2022/09/04 03:03:26;;;;;;;0.00;0.00;;;14.10;93.60;;;;;;4909351;29;20051;-81
2022/09/04 03:06:00;;;;;;;0.00;0.00;;;14.10;93.40;;;;;;4901519;29;20048;-81
2022/09/04 03:08:33;;;;;;;0.00;0.00;;;14.10;93.50;;;;;;4907692;29;20156;-80
2022/09/04 03:11:12;;;;;;;0.00;0.00;;;14.10;93.60;;;;;;4904846;29;20055;-81
2022/09/04 03:13:48;;;;;;;0.00;0.00;;;14.00;93.80;;;;;;4908037;29;20048;-80
2022/09/04 03:16:23;;;;;;;0.10;0.10;;;14.00;93.80;;;;;;4920473;29;20052;-81
2022/09/04 03:19:06;;;;;;;0.00;0.00;;;13.90;93.90;;;;;;4910182;29;20059;-82
2022/09/04 03:21:40;;;;;;;0.00;0.00;;;13.80;94.20;;;;;;4906486;29;20120;-81
2022/09/04 03:24:14;;;;;;;0.00;0.00;;;13.80;94.40;;;;;;4904592;29;20600;-79
2022/09/04 03:26:45;;;;;;;0.00;0.00;;;13.80;94.30;;;;;;4912329;29;20536;-80
2022/09/04 03:29:23;;;;;;;0.00;0.00;;;13.80;94.20;;;;;;4896159;29;20036;-80
2022/09/04 03:32:03;;;;;;;0.10;0.10;;;13.80;94.30;;;;;;4895643;29;20056;-80
2022/09/04 03:34:51;;;;;;;0.10;0.10;;;13.90;94.10;;;;;;4893514;29;20052;-80
2022/09/04 03:37:46;;;;;;;0.05;0.05;;;13.90;93.90;;;;;;4910980;29;20044;-80
2022/09/04 03:40:23;;;;;;;0.00;0.00;;;13.90;94.40;;;;;;4908806;29;20041;-80
2022/09/04 03:43:03;;;;;;;0.00;0.00;;;13.90;94.50;;;;;;4894289;29;20051;-80
2022/09/04 03:45:33;;;;;;;;;;;13.90;94.40;;;;;;4896117;29;20044;-80
2022/09/04 03:48:07;;;;;;;;;;;13.90;94.30;;;;;;4896486;29;19992;-80
2022/09/04 03:50:42;;;;;;;0.00;0.00;;;13.90;94.20;;;;;;4892498;29;19930;-79
2022/09/04 03:53:20;;;;;;;0.10;0.10;;;13.80;94.60;;;;;;4899299;29;20044;-80
2022/09/04 03:56:21;;;;;;;0.00;0.00;;;13.70;94.80;;;;;;4891889;29;20039;-80
2022/09/04 03:58:59;;;;;;;0.00;0.00;;;13.70;94.70;;;;;;4880596;29;20056;-80
2022/09/04 04:01:40;;;;;;;0.00;0.00;;;13.70;94.70;;;;;;4892799;29;20056;-80
2022/09/04 04:04:35;;;;;;;0.10;0.10;;;13.70;94.80;;;;;;4894629;29;20041;-80
2022/09/04 04:07:11;;;;;;;0.00;0.00;;;13.70;94.90;;;;;;4893871;29;20052;-80
2022/09/04 04:09:55;;;;;;;0.10;0.10;;;13.60;95.10;;;;;;4896443;29;20045;-80
2022/09/04 04:12:48;;;;;;;0.10;0.10;;;13.60;95.20;;;;;;4891297;29;20049;-80
2022/09/04 04:15:27;;;;;;;0.00;0.00;;;13.60;95.10;;;;;;4893061;29;20067;-80
2022/09/04 04:18:12;;;;;;;0.00;0.00;;;13.50;95.30;;;;;;4897417;29;20056;-80
2022/09/04 04:20:49;;;;;;;0.00;0.00;;;13.50;95.60;;;;;;4892410;29;20056;-80
2022/09/04 04:23:56;;;;;;;0.00;0.00;;;13.50;95.40;;;;;;4893967;29;20057;-80
2022/09/04 04:26:39;;;;;;;0.00;0.00;;;13.50;95.30;;;;;;4887488;29;20110;-80
2022/09/04 04:29:26;;;;;;;0.00;0.00;;;13.50;95.50;;;;;;4895971;29;20048;-80
2022/09/04 04:32:14;;;;;;;0.10;0.10;;;13.40;95.70;;;;;;4886530;29;20446;-80
2022/09/04 04:35:02;;;;;;;0.00;0.00;;;13.40;95.80;;;;;;4907611;29;20044;-80
2022/09/04 04:37:45;;;;;;;0.00;0.00;;;13.40;95.70;;;;;;4891540;29;20048;-80
2022/09/04 04:40:25;;;;;;;0.10;0.10;;;13.30;95.90;;;;;;4893090;29;20077;-80
2022/09/04 04:42:58;;;;;;;0.00;0.00;;;13.40;96.10;;;;;;4896029;29;20051;-80
2022/09/04 04:48:40;;;;;;;0.00;0.00;;;13.40;95.80;;;;;;4895145;29;20413;-79
2022/09/04 04:51:17;;;;;;;0.00;0.00;;;13.40;96.00;;;;;;4892495;29;20042;-80
2022/09/04 04:53:55;;;;;;;0.10;0.10;;;13.40;96.10;;;;;;4891045;29;20059;-80
2022/09/04 04:56:28;;;;;;;0.10;0.10;;;13.50;96.00;;;;;;4891172;29;20078;-79
2022/09/04 04:59:06;;;;;;;0.00;0.00;;;13.40;96.30;;;;;;4897302;29;20462;-80
2022/09/04 05:01:43;;;;;;;0.00;0.00;;;13.40;96.10;;;;;;4893686;29;20067;-80
2022/09/04 05:04:18;;;;;;;0.00;0.00;;;13.50;96.10;;;;;;4891600;29;20052;-80
2022/09/04 05:06:51;;;;;;;0.10;0.10;;;13.50;95.90;;;;;;4891510;29;20521;-80
2022/09/04 05:09:31;;;;;;;0.05;0.05;;;13.60;95.90;;;;;;4910623;29;20044;-81
2022/09/04 05:12:04;;;;;;;0.00;0.00;;;13.60;95.80;;;;;;4904844;29;20037;-80
2022/09/04 05:14:45;;;;;;;0.00;0.00;;;13.70;95.70;;;;;;4907958;29;20134;-80
2022/09/04 05:17:25;;;;;;;0.05;0.05;;;13.70;95.60;;;;;;4896556;29;20502;-80
2022/09/04 05:20:15;;;;;;;0.00;0.00;;;13.70;95.70;;;;;;4891507;29;20064;-80
2022/09/04 05:22:46;;;;;;;0.00;0.00;;;13.80;95.60;;;;;;4894578;29;20053;-80
2022/09/04 05:25:23;;;;;;;0.00;0.00;;;13.70;96.30;;;;;;4893493;29;20048;-80
2022/09/04 05:28:06;;;;;;;0.00;0.00;;;13.50;96.50;;;;;;4895311;29;20056;-80
2022/09/04 05:30:41;;;;;;;0.00;0.00;;;13.40;96.90;;;;;;4895564;29;20048;-80
2022/09/04 05:33:14;;;;;;;0.10;0.10;;;13.20;97.40;;;;;;4892611;29;20056;-81
2022/09/04 05:35:48;;;;;;;0.00;0.00;;;13.10;97.50;;;;;;4894647;29;20049;-80
2022/09/04 05:38:25;;;;;;;0.10;0.10;;;13.30;97.20;;;;;;4894277;29;20041;-80
2022/09/04 05:41:06;;;;;;;0.03;0.03;;;13.30;97.00;;;;;;4906280;29;20055;-80
2022/09/04 05:43:50;;;;;;;0.00;0.00;;;13.40;96.80;;;;;;4909825;29;20637;-81
2022/09/04 05:46:31;;;;;;;0.00;0.00;;;13.50;96.90;;;;;;4898274;29;20048;-80
2022/09/04 05:49:01;;;;;;;0.00;0.00;;;13.60;96.90;;;;;;4895909;29;20049;-80
2022/09/04 05:51:57;;;;;;;0.03;0.03;;;13.70;96.80;;;;;;4895062;29;20052;-80
2022/09/04 05:54:45;;;;;;;0.10;0.10;;;13.80;96.70;;;;;;4893039;29;20108;-79
2022/09/04 05:57:24;;;;;;;0.10;0.10;;;13.80;96.50;;;;;;4906483;29;20096;-80
2022/09/04 06:00:05;;;;;;;0.00;0.00;;;13.80;96.40;;;;;;4906752;29;20060;-80
2022/09/04 06:02:55;;;;;;;0.00;0.00;;;13.90;96.40;;;;;;4891710;29;21661;-79
2022/09/04 06:05:30;;;;;;;0.00;0.00;;;14.00;96.20;;;;;;4900542;29;20427;-80
2022/09/04 06:08:05;;;;;;;0.05;0.05;;;14.10;96.10;;;;;;4911695;29;20516;-80
2022/09/04 06:10:49;;;;;;;0.00;0.00;;;14.20;96.20;;;;;;4896298;29;20458;-80
2022/09/04 06:13:33;;;;;;;0.00;0.00;;;14.20;96.30;;;;;;4895569;29;20052;-80
2022/09/04 06:16:16;;;;;;;0.00;0.00;;;14.20;96.30;;;;;;4895557;29;20040;-80
2022/09/04 06:18:59;;;;;;;0.00;0.00;;;14.30;96.40;;;;;;4891512;29;20049;-80
2022/09/04 06:21:50;;;;;;;0.00;0.00;;;14.40;96.10;;;;;;4900285;29;20509;-80
2022/09/04 06:24:40;;;;;;;0.00;0.00;;;14.40;96.60;;;;;;4896792;29;20048;-80
2022/09/04 06:27:20;;;;;;;0.00;0.00;;;14.40;96.60;;;;;;4890812;29;20370;-80
2022/09/04 06:30:06;;;;;;;0.00;0.00;;;14.50;96.20;;;;;;4886863;29;20040;-80
2022/09/04 06:33:13;;;;;;;0.00;0.00;;;14.70;96.40;;;;;;4894374;29;20036;-80
2022/09/04 06:35:53;;;;;;;0.00;0.00;;;14.70;96.30;;;;;;4847478;29;20050;-80
2022/09/04 06:38:40;;;;;;;0.00;0.00;;;14.70;96.20;;;;;;4852221;29;20469;-80
2022/09/04 06:41:34;;;;;;;0.00;0.00;;;14.80;96.20;;;;;;4871900;29;20048;-80
2022/09/04 06:44:11;;;;;;;0.00;0.00;;;14.90;96.30;;;;;;4896009;29;20047;-80
2022/09/04 06:46:47;;;;;;;0.00;0.00;;;15.10;95.70;;;;;;4896073;29;20112;-80
2022/09/04 06:49:20;;;;;;;0.00;0.00;;;15.20;95.80;;;;;;4896924;29;20088;-80
2022/09/04 06:52:04;;;;;;;0.00;0.00;;;15.30;95.90;;;;;;4896979;29;20061;-80
2022/09/04 06:54:44;;;;;;;0.00;0.00;;;15.40;96.20;;;;;;4894012;29;20037;-80
2022/09/04 06:57:29;;;;;;;0.00;0.00;;;15.40;95.70;;;;;;4891707;29;20052;-80
2022/09/04 07:00:04;;;;;;;0.00;0.00;;;15.50;96.10;;;;;;4895619;29;20052;-80
2022/09/04 07:02:47;;;;;;;0.00;0.00;;;15.50;95.50;;;;;;4895789;29;20037;-80
2022/09/04 07:05:19;;;;;;;0.00;0.00;;;15.70;95.40;;;;;;4893210;29;20052;-80
2022/09/04 07:07:56;;;;;;;0.00;0.00;;;15.70;95.10;;;;;;4891919;29;20048;-80
2022/09/04 07:10:27;;;;;;;0.00;0.00;;;15.80;95.10;;;;;;4895411;29;20037;-80
2022/09/04 07:13:24;;;;;;;0.00;0.00;;;15.90;94.20;;;;;;4899686;29;20407;-80
2022/09/04 07:16:29;;;;;;;0.00;0.00;;;16.00;94.10;;;;;;4891976;29;20051;-80
2022/09/04 07:19:24;;;;;;;0.00;0.00;;;16.10;94.40;;;;;;4863019;29;20513;-80
2022/09/04 07:22:10;;;;;;;0.00;0.00;;;16.20;94.10;;;;;;4902943;29;20048;-80
2022/09/04 07:24:56;;;;;;;0.00;0.00;;;16.20;93.80;;;;;;4888602;29;20398;-80
2022/09/04 07:27:35;;;;;;;0.00;0.00;;;16.30;93.60;;;;;;4897358;29;20073;-80
2022/09/04 07:30:05;;;;;;;0.00;0.00;;;16.40;93.60;;;;;;4893401;29;20044;-80
2022/09/04 07:32:39;;;;;;;0.00;0.00;;;16.50;93.60;;;;;;4885433;29;20044;-80
2022/09/04 07:35:15;;;;;;;0.00;0.00;;;16.60;93.60;;;;;;4876504;29;21195;-80
2022/09/04 07:37:47;;;;;;;0.00;0.00;;;16.70;93.50;;;;;;4871632;29;20049;-79
2022/09/04 07:40:17;;;;;;;0.00;0.00;;;16.90;93.00;;;;;;4886697;29;20517;-80
2022/09/04 07:42:49;;;;;;;0.00;0.00;;;16.90;93.10;;;;;;4879503;29;20044;-80
2022/09/04 07:45:29;;;;;;;0.00;0.00;;;17.10;93.30;;;;;;4878471;29;20473;-80
2022/09/04 07:48:09;;;;;;;0.00;0.00;;;17.20;92.80;;;;;;4887729;29;20402;-79
2022/09/04 07:51:03;;;;;;;0.00;0.00;;;17.20;92.50;;;;;;4880785;29;20041;-80
2022/09/04 07:53:46;;;;;;;0.00;0.00;;;17.20;92.50;;;;;;4892146;29;20053;-80
2022/09/04 07:56:22;;;;;;;0.00;0.00;;;17.40;92.50;;;;;;4882457;29;20502;-80
2022/09/04 07:59:19;;;;;;;0.00;0.00;;;17.50;92.40;;;;;;4882724;29;20049;-80
2022/09/04 08:01:57;;;;;;;0.00;0.00;;;17.60;92.50;;;;;;4908955;29;20115;-80
2022/09/04 08:04:39;;;;;;;0.00;0.00;;;17.70;92.20;;;;;;4886355;29;20051;-80
2022/09/04 08:07:14;;;;;;;0.00;0.00;;;17.80;92.20;;;;;;4881546;29;20049;-79
2022/09/04 08:10:03;;;;;;;0.00;0.00;;;17.90;92.00;;;;;;4874628;29;20063;-80
2022/09/04 08:12:49;;;;;;;0.00;0.00;;;17.90;92.10;;;;;;4882181;29;20045;-80
2022/09/04 08:15:20;;;;;;;0.00;0.00;;;18.10;91.90;;;;;;4891271;29;20083;-80
2022/09/04 08:18:00;;;;;;;0.00;0.00;;;18.10;91.80;;;;;;4874681;29;20446;-80
2022/09/04 08:20:44;;;;;;;0.00;0.00;;;18.20;91.60;;;;;;4903661;29;20053;-80
2022/09/04 08:23:25;;;;;;;0.00;0.00;;;18.30;91.60;;;;;;4878328;29;20056;-81
2022/09/04 08:26:03;;;;;;;0.00;0.00;;;18.40;91.40;;;;;;4883220;29;20044;-80
2022/09/04 08:28:43;;;;;;;0.00;0.00;;;18.60;91.40;;;;;;4882577;29;20049;-80
2022/09/04 08:31:22;;;;;;;0.00;0.00;;;18.70;91.30;;;;;;4890858;29;20044;-80
2022/09/04 08:34:09;;;;;;;0.00;0.00;;;18.80;91.20;;;;;;4887190;29;20048;-80
2022/09/04 08:36:44;;;;;;;0.00;0.00;;;18.90;91.20;;;;;;4895126;29;20041;-81
2022/09/04 08:39:23;;;;;;;0.00;0.00;;;19.10;90.90;;;;;;4893905;29;20660;-80
2022/09/04 08:42:24;;;;;;;0.00;0.00;;;19.20;90.90;;;;;;4896624;29;20053;-81
2022/09/04 08:45:24;;;;;;;0.00;0.00;;;19.30;90.60;;;;;;4893655;29;20049;-81
2022/09/04 08:48:44;;;;;;;0.00;0.00;;;19.50;90.70;;;;;;4897165;29;20441;-80
2022/09/04 08:51:46;;;;;;;0.00;0.00;;;19.70;90.20;;;;;;4885692;29;20060;-81
2022/09/04 08:54:30;;;;;;;0.08;0.08;;;19.70;90.30;;;;;;4908852;29;20048;-80
2022/09/04 08:57:21;;;;;;;0.00;0.00;;;19.70;90.30;;;;;;4895059;29;20048;-80
2022/09/04 09:00:08;;;;;;;0.00;0.00;;;19.80;90.00;;;;;;4892946;29;20045;-80
2022/09/04 09:03:34;;;;;;;0.00;0.00;;;19.90;90.20;;;;;;4881877;29;20063;-81
2022/09/04 09:06:50;;;;;;;0.00;0.00;;;19.90;90.10;;;;;;4877178;29;20474;-80
2022/09/04 09:09:49;;;;;;;0.00;0.00;;;20.00;89.90;;;;;;4876245;29;20469;-80
2022/09/04 09:12:49;;;;;;;0.00;0.00;;;20.10;89.80;;;;;;4890391;29;20742;-81
2022/09/04 09:15:38;;;;;;;0.00;0.00;;;20.20;89.60;;;;;;4888929;29;20055;-81
2022/09/04 09:18:29;;;;;;;0.00;0.00;;;20.30;89.50;;;;;;4910390;29;20033;-80
2022/09/04 09:21:04;;;;;;;0.00;0.00;;;20.40;89.60;;;;;;4890734;29;20055;-80
2022/09/04 09:23:42;;;;;;;0.00;0.00;;;20.50;89.00;;;;;;4892444;29;20045;-80
2022/09/04 09:26:28;;;;;;;0.00;0.00;;;20.60;89.00;;;;;;4888479;29;20488;-81
2022/09/04 09:29:23;;;;;;;0.00;0.00;;;20.70;88.60;;;;;;4898109;29;20048;-81
2022/09/04 09:34:57;;;;;;;0.00;0.00;;;20.90;88.20;;;;;;4897310;29;20125;-83
2022/09/04 09:37:41;;;;;;;;;;;20.90;88.20;;;;;;4909714;29;20053;-85
2022/09/04 09:40:35;;;;;;;0.00;0.00;;;21.00;88.60;;;;;;4904304;29;20283;-84
2022/09/04 09:43:25;;;;;;;0.00;0.00;;;21.10;88.90;;;;;;4865497;29;20068;-84
2022/09/04 09:46:30;;;;;;;0.00;0.00;;;21.30;88.20;;;;;;4886852;29;20052;-83
2022/09/04 09:49:29;;;;;;;0.00;0.00;;;21.40;87.10;;;;;;4881182;29;20115;-83
2022/09/04 09:52:28;;;;;;;0.00;0.00;;;21.50;88.30;;;;;;4897023;29;20061;-82
2022/09/04 09:55:02;;;;;;;;;;;21.60;87.50;;;;;;4881066;29;20301;-83
2022/09/04 09:58:01;;;;;;;0.00;0.00;;;21.70;88.10;;;;;;4884721;29;19928;-83
2022/09/04 10:00:43;;;;;;;0.00;0.00;;;21.80;87.80;;;;;;4884542;29;20041;-82
2022/09/04 10:03:39;;;;;;;0.00;0.00;;;21.90;87.50;;;;;;4881068;29;20049;-84
2022/09/04 10:06:33;;;;;;;0.00;0.00;;;21.90;87.50;;;;;;4884128;29;20420;-84
2022/09/04 10:09:21;;;;;;;0.00;0.00;;;22.00;87.00;;;;;;4881509;29;20084;-85
2022/09/04 10:12:18;;;;;;;0.00;0.00;;;22.10;86.80;;;;;;4902958;29;20053;-84
2022/09/04 10:15:20;;;;;;;0.00;0.00;;;22.10;87.50;;;;;;4887900;29;20053;-85
2022/09/04 10:18:32;;;;;;;0.00;0.00;;;22.20;86.70;;;;;;4875091;29;20064;-84
2022/09/04 10:21:28;;;;;;;0.00;0.00;;;22.30;86.90;;;;;;4879416;29;20048;-83
2022/09/04 10:24:38;;;;;;;0.00;0.00;;;22.40;89.10;;;;;;4896506;29;20048;-83
2022/09/04 10:27:33;;;;;;;0.00;0.00;;;22.50;88.00;;;;;;4883080;29;20413;-85
2022/09/04 10:30:09;;;;;;;0.00;0.00;;;22.60;86.70;;;;;;4882216;29;20506;-84
2022/09/04 10:33:18;;;;;;;0.00;0.00;;;22.70;86.60;;;;;;4895447;29;20053;-84
2022/09/04 10:35:56;;;;;;;0.00;0.00;;;22.80;87.30;;;;;;4885356;29;20037;-84
2022/09/04 10:42:08;;;;;;;0.00;0.00;;;23.00;87.00;;;;;;4883521;29;20050;-84
2022/09/04 10:44:59;;;;;;;0.00;0.00;;;23.00;87.20;;;;;;4878112;29;20056;-83
2022/09/04 10:47:51;;;;;;;0.00;0.00;;;23.00;87.80;;;;;;4897098;29;20041;-83
2022/09/04 10:50:49;;;;;;;0.00;0.00;;;23.10;89.40;;;;;;4890886;29;20057;-84
2022/09/04 10:53:50;;;;;;;0.00;0.00;;;23.20;88.80;;;;;;4884163;29;20064;-83
2022/09/04 10:56:25;;;;;;;0.00;0.00;;;23.20;89.00;;;;;;4861546;29;20045;-82
2022/09/04 10:59:20;;;;;;;0.00;0.00;;;23.30;89.70;;;;;;4888491;29;20525;-84
2022/09/04 11:02:16;;;;;;;0.00;0.00;;;23.40;88.60;;;;;;4888441;29;20053;-84
2022/09/04 11:05:05;;;;;;;0.00;0.00;;;23.40;88.90;;;;;;4888048;29;20045;-84
2022/09/04 11:07:41;;;;;;;;;;;23.60;89.30;;;;;;4884120;29;20056;-84
2022/09/04 11:10:25;;;;;;;0.00;0.00;;;23.70;89.30;;;;;;4885247;29;19942;-83
2022/09/04 11:13:24;;;;;;;0.00;0.00;;;23.80;89.70;;;;;;4881633;29;20458;-82
2022/09/04 11:16:07;;;;;;;0.00;0.00;;;23.80;88.70;;;;;;4891961;29;20057;-83
2022/09/04 11:19:19;;;;;;;0.00;0.00;;;23.90;87.90;;;;;;4894316;29;20037;-82
2022/09/04 11:22:27;;;;;;;0.00;0.00;;;23.90;87.10;;;;;;4876233;29;20057;-84
2022/09/04 11:25:23;;;;;;;0.00;0.00;;;23.90;87.40;;;;;;4888720;29;20524;-85
2022/09/04 11:28:11;;;;;;;0.00;0.00;;;23.90;88.40;;;;;;4900634;29;20053;-83
2022/09/04 11:30:57;;;;;;;0.00;0.00;;;24.00;87.80;;;;;;4885087;29;20049;-84
2022/09/04 11:33:56;;;;;;;0.00;0.00;;;24.00;88.20;;;;;;4890999;29;20576;-84
2022/09/04 11:37:08;;;;;;;0.00;0.00;;;24.10;87.90;;;;;;4877400;29;20053;-83
2022/09/04 11:40:11;;;;;;;0.00;0.00;;;24.10;88.70;;;;;;4866599;29;20060;-82
2022/09/04 11:42:45;;;;;;;0.00;0.00;;;24.20;88.90;;;;;;4896362;29;20037;-84
2022/09/04 11:45:40;;;;;;;0.00;0.00;;;24.30;88.00;;;;;;4900432;29;20051;-82
2022/09/04 11:48:40;;;;;;;0.00;0.00;;;24.30;87.10;;;;;;4889095;29;20120;-83
2022/09/04 11:51:48;;;;;;;0.00;0.00;;;24.40;87.40;;;;;;4890152;29;20077;-82
2022/09/04 11:54:40;;;;;;;0.00;0.00;;;24.50;87.50;;;;;;4879962;29;20052;-83
2022/09/04 11:57:18;;;;;;;0.00;0.00;;;24.50;87.40;;;;;;4884382;29;20053;-83
2022/09/04 12:00:06;;;;;;;0.00;0.00;;;25.50;87.70;;;;;;4880220;29;20830;-83
2022/09/04 12:02:59;;;;;;;0.00;0.00;;;24.60;86.40;;;;;;4887491;29;20041;-82
2022/09/04 12:05:39;;;;;;;0.00;0.00;;;24.80;86.90;;;;;;4884301;29;20529;-83
2022/09/04 12:08:25;;;;;;;0.00;0.00;;;25.00;85.20;;;;;;4885350;29;20064;-84
2022/09/04 12:11:08;;;;;;;0.00;0.00;;;25.10;86.60;;;;;;4901658;29;20244;-84
2022/09/04 12:13:55;;;;;;;0.00;0.00;;;25.30;85.70;;;;;;4900396;29;20041;-83
2022/09/04 12:16:56;;;;;;;0.00;0.00;;;25.50;84.40;;;;;;4880072;29;20058;-84
2022/09/04 12:20:14;;;;;;;0.00;0.00;;;25.60;84.50;;;;;;4879119;29;20060;-82
2022/09/04 12:23:11;;;;;;;0.00;0.00;;;25.60;84.50;;;;;;4835038;29;20558;-82
2022/09/04 12:26:05;;;;;;;0.00;0.00;;;25.50;84.20;;;;;;4883577;29;20061;-84
2022/09/04 12:29:08;;;;;;;0.00;0.00;;;25.40;83.90;;;;;;4876704;29;20041;-84
2022/09/04 12:32:12;;;;;;;0.00;0.00;;;25.40;83.70;;;;;;4888871;29;20127;-82
2022/09/04 12:35:05;;;;;;;0.00;0.00;;;25.40;84.10;;;;;;4881626;29;20056;-84
2022/09/04 12:37:56;;;;;;;0.00;0.00;;;25.50;84.80;;;;;;4877776;29;20041;-84
2022/09/04 12:40:33;;;;;;;0.00;0.00;;;25.50;84.10;;;;;;4873786;29;20044;-84
2022/09/04 12:43:20;;;;;;;0.00;0.00;;;25.40;84.30;;;;;;4883720;29;20506;-84
2022/09/04 12:46:02;;;;;;;0.00;0.00;;;25.50;83.40;;;;;;4884108;29;20109;-84
2022/09/04 12:48:39;;;;;;;0.00;0.00;;;25.50;83.40;;;;;;4887421;29;20045;-83
2022/09/04 12:51:11;;;;;;;0.00;0.00;;;25.50;83.40;;;;;;4894514;29;20044;-83
2022/09/04 12:54:00;;;;;;;0.00;0.00;;;25.70;84.50;;;;;;4884218;29;20053;-83
2022/09/04 12:56:41;;;;;;;0.00;0.00;;;25.70;82.50;;;;;;4893317;29;20049;-83
2022/09/04 12:59:32;;;;;;;0.00;0.00;;;25.90;83.10;;;;;;4898125;29;20037;-84
2022/09/04 13:02:09;;;;;;;0.00;0.00;;;26.00;84.10;;;;;;4882779;29;20060;-83
2022/09/04 13:04:54;;;;;;;0.00;0.00;;;26.10;81.80;;;;;;4878997;29;20048;-83
2022/09/04 13:07:32;;;;;;;0.00;0.00;;;26.20;82.00;;;;;;4884251;29;20029;-85
2022/09/04 13:10:09;;;;;;;0.00;0.00;;;26.20;82.30;;;;;;4904173;29;20051;-83
2022/09/04 13:12:45;;;;;;;0.00;0.00;;;26.30;82.70;;;;;;4883972;29;20048;-81
2022/09/04 13:15:20;;;;;;;0.00;0.00;;;26.20;80.50;;;;;;4881407;29;20045;-83
2022/09/04 13:17:57;;;;;;;0.00;0.00;;;26.20;81.10;;;;;;4885310;29;20041;-83
2022/09/04 13:20:33;;;;;;;0.00;0.00;;;26.30;82.30;;;;;;4892953;29;20462;-82
2022/09/04 13:23:22;;;;;;;0.00;0.00;;;26.40;81.30;;;;;;4883843;29;20049;-83
2022/09/04 13:26:07;;;;;;;0.00;0.00;;;26.30;81.30;;;;;;4890604;29;20567;-84
2022/09/04 13:28:44;;;;;;;0.00;0.00;;;26.50;81.50;;;;;;4884891;29;20041;-82
2022/09/04 13:31:42;;;;;;;0.00;0.00;;;26.70;81.80;;;;;;4893001;29;20045;-83
2022/09/04 13:34:22;;;;;;;0.00;0.00;;;26.80;82.70;;;;;;4881195;29;20053;-82
2022/09/04 13:37:03;;;;;;;0.00;0.00;;;26.80;81.40;;;;;;4904019;29;20049;-82
2022/09/04 13:39:47;;;;;;;0.00;0.00;;;26.90;80.60;;;;;;4885857;29;20121;-84
2022/09/04 13:42:46;;;;;;;0.00;0.00;;;26.70;79.90;;;;;;4884613;29;20049;-80
2022/09/04 13:45:22;;;;;;;0.00;0.00;;;27.00;80.00;;;;;;4895630;29;20053;-81
2022/09/04 13:47:55;;;;;;;0.00;0.00;;;27.00;79.10;;;;;;4883562;29;20049;-82
2022/09/04 13:50:30;;;;;;;0.00;0.00;;;26.90;79.30;;;;;;4888731;29;20053;-81
2022/09/04 13:53:01;;;;;;;0.00;0.00;;;26.80;79.70;;;;;;4890037;29;20052;-82
2022/09/04 13:55:33;;;;;;;0.00;0.00;;;26.60;80.50;;;;;;4886884;29;20048;-83
2022/09/04 13:58:09;;;;;;;0.00;0.00;;;26.70;80.30;;;;;;4883711;29;20034;-83
2022/09/04 14:00:44;;;;;;;0.00;0.00;;;26.80;79.50;;;;;;4884994;29;20308;-83
2022/09/04 14:03:18;;;;;;;0.00;0.00;;;26.70;79.90;;;;;;4882781;29;20446;-84
2022/09/04 14:05:47;;;;;;;0.00;0.00;;;26.80;80.40;;;;;;4890068;29;20536;-83
2022/09/04 14:08:16;;;;;;;0.00;0.00;;;26.80;79.40;;;;;;4886500;29;20045;-83
2022/09/04 14:11:18;;;;;;;0.00;0.00;;;26.80;80.10;;;;;;4890799;29;20060;-83
2022/09/04 14:14:10;;;;;;;0.00;0.00;;;26.90;80.20;;;;;;4880760;29;20359;-82
2022/09/04 14:16:38;;;;;;;0.00;0.00;;;27.00;80.30;;;;;;4874757;29;20041;-82
2022/09/04 14:19:17;;;;;;;0.00;0.00;;;26.90;80.10;;;;;;4889634;29;20461;-82
2022/09/04 14:22:13;;;;;;;0.00;0.00;;;26.90;79.00;;;;;;4888596;29;20100;-81